Lela Franco — WDI2504 — position and weather

sailwx.info

Track history (hours):
 
Tides and Currents Weather Stations Pressure Air Temp Water Temp Dewpoint Dewpoint Depression Visibility Wind Speed Wind Dir Waves Ship Positions

Lela Franco

Owner: Harley Marine Services, Inc, Seattle, WA. More information available from US FCC via Universal Licensing System and Coast Guard Vessel Documentation Center.

Last reported at 2018-Jun-25 15:31 UTC. Time now 2018-Jun-25 15:42 UTC.
Position N 33°43' W 118°13'.

Length 18 m; draft 3 m.

Type: Towing. MMSI: 366926730.

Date/timePositionNaut miles runAvg speedWind from/ knotsBaromVisibWave heightAir tempDewpointWater temp
2018-Jun-25 15:31N 33°43' W 118°13'0 0.6
2018-Jun-25 15:00N 33°44' W 118°13'1 2.4
2018-Jun-25 14:30N 33°45' W 118°13'1 1.3
2018-Jun-25 14:00N 33°44' W 118°13'1 2.2
2018-Jun-25 13:30N 33°45' W 118°13'0 0.3
2018-Jun-25 13:00N 33°45' W 118°13'2 3.4
2018-Jun-25 12:30N 33°44' W 118°12'0 0.1
2018-Jun-25 12:00N 33°44' W 118°12'1 2.1
2018-Jun-25 11:30N 33°45' W 118°13'2 3.3
2018-Jun-25 10:58N 33°46' W 118°14'1 3.1
2018-Jun-25 10:30N 33°45' W 118°13'0 0.0
2018-Jun-25 10:00N 33°45' W 118°13'0 0.0
2018-Jun-25 09:30N 33°45' W 118°13'0 0.0
2018-Jun-25 09:00N 33°45' W 118°13'1 1.9
2018-Jun-25 08:30N 33°46' W 118°13'1 1.2
2018-Jun-25 08:00N 33°46' W 118°13'0 0.2
2018-Jun-25 07:29N 33°46' W 118°13'2 3.3
2018-Jun-25 07:00N 33°46' W 118°15'2 3.1
2018-Jun-25 06:30N 33°45' W 118°16'1 2.4
2018-Jun-25 06:01N 33°46' W 118°16'1 2.4
2018-Jun-25 05:30N 33°45' W 118°16'1 2.2
2018-Jun-25 05:00N 33°44' W 118°16'0 0.0
2018-Jun-25 04:30N 33°44' W 118°16'0 0.0
2018-Jun-25 04:00N 33°44' W 118°16'0 0.0
2018-Jun-25 03:30N 33°44' W 118°16'0 0.0
2018-Jun-25 03:00N 33°44' W 118°16'0 0.0
2018-Jun-25 02:30N 33°44' W 118°16'1 2.2
2018-Jun-25 02:00N 33°43' W 118°15'3 6.3
2018-Jun-25 01:30N 33°45' W 118°12'0 0.7
2018-Jun-25 01:01N 33°45' W 118°12'1 2.0
2018-Jun-25 00:30N 33°44' W 118°11'0 0.6
2018-Jun-25 00:00N 33°44' W 118°12'0 0.2
2018-Jun-24 23:30N 33°44' W 118°12'3 5.7
2018-Jun-24 23:00N 33°43' W 118°15'3 5.7
2018-Jun-24 22:30N 33°45' W 118°16'1 1.4
2018-Jun-24 22:00N 33°46' W 118°16'1 2.2
2018-Jun-24 21:30N 33°45' W 118°16'2 4.9
2018-Jun-24 21:00N 33°43' W 118°15'0 0.4
2018-Jun-24 20:30N 33°43' W 118°15'2 4.4
2018-Jun-24 20:00N 33°45' W 118°17'1 2.9
2018-Jun-24 19:30N 33°46' W 118°16'2 4.8
2018-Jun-24 19:00N 33°44' W 118°16'1 1.2
2018-Jun-24 18:30N 33°44' W 118°16'0 0.0
2018-Jun-24 18:00N 33°44' W 118°16'0 0.0
2018-Jun-24 17:30N 33°44' W 118°16'0 0.0
2018-Jun-24 17:00N 33°44' W 118°16'0 0.0
2018-Jun-24 16:29N 33°44' W 118°16'0 0.0
2018-Jun-24 16:00N 33°44' W 118°16'0 0.0
2018-Jun-24 15:30N 33°44' W 118°16'1 1.9
2018-Jun-24 15:00N 33°44' W 118°17'1 2.5
2018-Jun-24 14:30N 33°45' W 118°16'2 3.3
2018-Jun-24 14:00N 33°44' W 118°16'0 0.6
2018-Jun-24 13:30N 33°44' W 118°15'0 0.7
2018-Jun-24 12:57N 33°44' W 118°16'1 2.5
2018-Jun-24 12:30N 33°43' W 118°15'3 5.8
2018-Jun-24 12:00N 33°45' W 118°16'1 2.1
2018-Jun-24 11:30N 33°45' W 118°17'2 4.7
2018-Jun-24 11:00N 33°43' W 118°15'0 0.0
2018-Jun-24 10:30N 33°43' W 118°15'0 0.2
2018-Jun-24 10:00N 33°43' W 118°15'1 2.6
2018-Jun-24 09:30N 33°44' W 118°16'0 0.0
2018-Jun-24 09:00N 33°44' W 118°16'0 0.0
2018-Jun-24 08:30N 33°44' W 118°16'0 0.0
2018-Jun-24 08:00N 33°44' W 118°16'0 0.0
2018-Jun-24 07:30N 33°44' W 118°16'0 0.0
2018-Jun-24 07:00N 33°44' W 118°16'0 0.0
2018-Jun-24 06:30N 33°44' W 118°16'1 1.8
2018-Jun-24 06:00N 33°44' W 118°17'1 2.9
2018-Jun-24 05:30N 33°46' W 118°16'0 0.0
2018-Jun-24 05:00N 33°46' W 118°16'2 4.1
2018-Jun-24 04:31N 33°44' W 118°16'1 2.6
2018-Jun-24 04:01N 33°45' W 118°16'0 0.0
2018-Jun-24 04:00N 33°45' W 118°16'1248.0
2018-Jun-24 04:00N 33°44' W 118°16'0 0.0
2018-Jun-24 03:30N 33°44' W 118°16'1170.2
2018-Jun-24 03:30N 33°44' W 118°16'2 3.6
2018-Jun-24 03:00N 33°42' W 118°16'2718.7
2018-Jun-24 03:00N 33°44' W 118°16'1 2.1
2018-Jun-24 02:30N 33°45' W 118°16'519083.5
2018-Jun-24 02:30N 33°40' W 118°19'612.0
2018-Jun-24 02:01N 33°45' W 118°16'104416.3
2018-Jun-24 02:00N 33°37' W 118°22'1019.6
2018-Jun-24 01:30N 33°45' W 118°16'132101.1
2018-Jun-24 01:30N 33°34' W 118°25'1326.4
2018-Jun-24 01:00N 33°45' W 118°16'18168.6
2018-Jun-24 00:53N 33°31' W 118°29'1845.7
2018-Jun-24 00:30N 33°45' W 118°16'0 0.0
2018-Jun-24 00:00N 33°45' W 118°16'0 0.0
2018-Jun-23 23:30N 33°45' W 118°16'0 0.5
2018-Jun-23 23:00N 33°45' W 118°16'1 1.8
2018-Jun-23 22:30N 33°46' W 118°17'2292.9
2018-Jun-23 22:16N 33°28' W 118°32'2179.4
2018-Jun-23 22:00N 33°45' W 118°16'2079.8
2018-Jun-23 21:46N 33°29' W 118°31'1974.8
2018-Jun-23 21:30N 33°44' W 118°17'17246.4
2018-Jun-23 21:26N 33°31' W 118°29'1738.2
2018-Jun-23 21:00N 33°43' W 118°15'13468.4
2018-Jun-23 20:59N 33°33' W 118°26'1328.7
2018-Jun-23 20:30N 33°44' W 118°16'1018012.6
2018-Jun-23 20:30N 33°36' W 118°23'1020.0
2018-Jun-23 20:00N 33°44' W 118°16'6698.5
2018-Jun-23 20:00N 33°38' W 118°19'4 7.4
2018-Jun-23 19:30N 33°41' W 118°16'31146.4
2018-Jun-23 19:30N 33°44' W 118°16'1 1.9
2018-Jun-23 19:01N 33°43' W 118°16'44369.7
2018-Jun-23 19:00N 33°44' W 118°12'1 2.8
2018-Jun-23 18:30N 33°45' W 118°11'47908.5
2018-Jun-23 18:30N 33°45' W 118°16'5 9.2
2018-Jun-23 18:00N 33°44' W 118°11'4 7.1
2018-Jun-23 17:30N 33°43' W 118°15'1 2.2
2018-Jun-23 17:00N 33°44' W 118°16'0 0.0
2018-Jun-23 16:30N 33°44' W 118°16'0 0.0
2018-Jun-23 16:00N 33°44' W 118°16'0 0.0
2018-Jun-23 15:30N 33°44' W 118°16'0 0.0
2018-Jun-23 15:00N 33°44' W 118°16'0 0.0
2018-Jun-23 14:30N 33°44' W 118°16'0 0.0
2018-Jun-23 14:00N 33°44' W 118°16'1 1.8
2018-Jun-23 13:30N 33°44' W 118°17'1 1.6
2018-Jun-23 13:00N 33°45' W 118°16'0 0.6
2018-Jun-23 12:30N 33°45' W 118°16'0 0.0
2018-Jun-23 12:00N 33°45' W 118°16'0 0.0
2018-Jun-23 11:30N 33°45' W 118°16'0 0.0
2018-Jun-23 11:00N 33°45' W 118°16'0 0.0
2018-Jun-23 10:30N 33°45' W 118°16'0 0.0
2018-Jun-23 10:00N 33°45' W 118°16'0 0.0
2018-Jun-23 09:30N 33°45' W 118°16'0 0.0
2018-Jun-23 09:00N 33°45' W 118°16'0 0.0
2018-Jun-23 08:30N 33°45' W 118°16'0 0.0
2018-Jun-23 08:00N 33°45' W 118°16'0 0.5
2018-Jun-23 07:31N 33°46' W 118°16'0 0.3
2018-Jun-23 07:00N 33°45' W 118°16'2 4.4
2018-Jun-23 06:28N 33°43' W 118°16'0 1.0
2018-Jun-23 06:00N 33°43' W 118°16'0 0.9
2018-Jun-23 05:30N 33°44' W 118°16'0 0.0
2018-Jun-23 05:00N 33°44' W 118°16'0 0.0
2018-Jun-23 04:30N 33°44' W 118°16'0 0.0
2018-Jun-23 04:00N 33°44' W 118°16'0 0.0
2018-Jun-23 03:30N 33°44' W 118°16'0 0.0
2018-Jun-23 03:00N 33°44' W 118°16'0 0.8
2018-Jun-23 02:30N 33°43' W 118°16'1 1.5
2018-Jun-23 02:00N 33°44' W 118°15'0 0.2
2018-Jun-23 01:30N 33°44' W 118°15'0 0.2
2018-Jun-23 01:00N 33°44' W 118°15'1 1.3
2018-Jun-23 00:30N 33°44' W 118°16'2 4.3
2018-Jun-23 00:00N 33°44' W 118°13'0 0.1
2018-Jun-22 23:30N 33°44' W 118°13'0 0.0
2018-Jun-22 23:00N 33°44' W 118°13'0 0.0
2018-Jun-22 22:30N 33°44' W 118°13'1 2.8
2018-Jun-22 22:00N 33°45' W 118°13'2 3.4
2018-Jun-22 21:30N 33°44' W 118°12'1 1.3
2018-Jun-22 21:00N 33°44' W 118°13'0 0.7
2018-Jun-22 20:30N 33°44' W 118°13'0 0.4
2018-Jun-22 20:00N 33°43' W 118°13'312.5
2018-Jun-22 19:45N 33°45' W 118°16'0 0.0
2018-Jun-22 19:30N 33°45' W 118°16'3942.6
2018-Jun-22 19:30N 33°44' W 118°13'1 2.9
2018-Jun-22 19:00N 33°45' W 118°13'3641.9
2018-Jun-22 19:00N 33°45' W 118°16'0 0.0
2018-Jun-22 18:30N 33°45' W 118°16'39985.7
2018-Jun-22 18:30N 33°43' W 118°14'3 5.3
2018-Jun-22 18:01N 33°45' W 118°16'189.7
2018-Jun-22 18:00N 33°44' W 118°16'0 0.0
2018-Jun-22 17:30N 33°44' W 118°16'1558.0
2018-Jun-22 17:30N 33°45' W 118°16'1 2.5
2018-Jun-22 17:00N 33°44' W 118°16'0 0.0
2018-Jun-22 16:30N 33°44' W 118°16'0 0.0
2018-Jun-22 16:00N 33°44' W 118°16'0 0.0
2018-Jun-22 15:30N 33°44' W 118°16'1 2.7
2018-Jun-22 15:00N 33°43' W 118°14'2 4.5
2018-Jun-22 14:29N 33°45' W 118°13'0 0.0
2018-Jun-22 14:00N 33°45' W 118°13'0 0.0
2018-Jun-22 13:30N 33°45' W 118°13'0 0.0
2018-Jun-22 13:00N 33°45' W 118°13'0 0.0
2018-Jun-22 12:29N 33°45' W 118°13'0 0.0
2018-Jun-22 12:00N 33°45' W 118°13'0 0.0
2018-Jun-22 11:28N 33°45' W 118°13'0 0.0
2018-Jun-22 11:00N 33°45' W 118°13'0 0.0
2018-Jun-22 10:30N 33°45' W 118°13'0 0.0
2018-Jun-22 10:00N 33°45' W 118°13'1 2.3
2018-Jun-22 09:30N 33°46' W 118°13'0 0.4
2018-Jun-22 09:01N 33°46' W 118°13'2 4.8
2018-Jun-22 08:30N 33°44' W 118°12'1 1.4
2018-Jun-22 08:00N 33°44' W 118°12'0 0.0
2018-Jun-22 07:30N 33°44' W 118°12'0 0.0
2018-Jun-22 07:00N 33°44' W 118°12'0 0.0
2018-Jun-22 06:30N 33°44' W 118°12'0 0.0
2018-Jun-22 06:00N 33°44' W 118°12'2 3.1
2018-Jun-22 05:30N 33°44' W 118°10'2 3.2
2018-Jun-22 05:00N 33°44' W 118°12'3 6.9
2018-Jun-22 04:30N 33°44' W 118°16'0 0.4
2018-Jun-22 03:59N 33°44' W 118°16'0 0.0
2018-Jun-22 03:30N 33°44' W 118°16'0 0.0
2018-Jun-22 03:00N 33°44' W 118°16'0 0.0
2018-Jun-22 02:27N 33°44' W 118°16'0 0.2
2018-Jun-22 02:00N 33°44' W 118°16'0 0.7
2018-Jun-22 01:30N 33°44' W 118°15'1 1.4
2018-Jun-22 01:00N 33°43' W 118°16'2 3.4
2018-Jun-22 00:30N 33°45' W 118°16'1 1.5
2018-Jun-22 00:00N 33°46' W 118°16'2 3.5
2018-Jun-21 23:30N 33°44' W 118°16'1 1.2
2018-Jun-21 23:00N 33°44' W 118°16'1 6.6
2018-Jun-21 22:49N 33°45' W 118°16'1 4.1
2018-Jun-21 22:30N 33°44' W 118°16'12221.5
2018-Jun-21 22:30N 33°45' W 118°16'2 4.5
2018-Jun-21 22:00N 33°43' W 118°15'1227.1
2018-Jun-21 22:00N 33°44' W 118°16'4 8.1
2018-Jun-21 21:31N 33°40' W 118°18'4186.3
2018-Jun-21 21:29N 33°44' W 118°16'0 0.0
2018-Jun-21 21:00N 33°44' W 118°16'8225.9
2018-Jun-21 20:58N 33°38' W 118°22'816.9
2018-Jun-21 20:30N 33°44' W 118°16'0 0.0
2018-Jun-21 20:00N 33°44' W 118°16'0 0.0
2018-Jun-21 19:30N 33°44' W 118°16'0 0.0
2018-Jun-21 19:00N 33°44' W 118°16'2450.3
2018-Jun-21 18:32N 33°27' W 118°35'24792.2
2018-Jun-21 18:30N 33°43' W 118°14'0 0.3
2018-Jun-21 18:00N 33°43' W 118°14'2 3.2
2018-Jun-21 17:30N 33°44' W 118°16'0 0.8
2018-Jun-21 17:00N 33°44' W 118°16'0 0.0
2018-Jun-21 16:30N 33°44' W 118°16'0 0.0
2018-Jun-21 16:00N 33°44' W 118°16'0 0.0
2018-Jun-21 15:30N 33°44' W 118°16'0 0.0
2018-Jun-21 15:00N 33°44' W 118°16'1847.8
2018-Jun-21 14:37N 33°32' W 118°32'18158.6
2018-Jun-21 14:30N 33°44' W 118°16'1712205.1
2018-Jun-21 14:30N 33°33' W 118°31'1733.3
2018-Jun-21 14:00N 33°43' W 118°15'1289.3
2018-Jun-21 13:53N 33°36' W 118°26'1541.4
2018-Jun-21 13:31N 33°46' W 118°13'12780.4
2018-Jun-21 13:30N 33°37' W 118°23'1225.2
2018-Jun-21 13:00N 33°46' W 118°13'910449.1
2018-Jun-21 13:00N 33°39' W 118°20'4 7.7
2018-Jun-21 12:30N 33°41' W 118°16'42434.4
2018-Jun-21 12:30N 33°44' W 118°12'3 6.9
2018-Jun-21 12:00N 33°43' W 118°16'41933.5
2018-Jun-21 12:00N 33°44' W 118°12'3 6.9
2018-Jun-21 11:30N 33°44' W 118°16'11544.3
2018-Jun-21 11:30N 33°45' W 118°16'1 2.6
2018-Jun-21 11:00N 33°44' W 118°16'0 0.1
2018-Jun-21 10:30N 33°44' W 118°16'0 0.0
2018-Jun-21 10:00N 33°44' W 118°16'0 0.1
2018-Jun-21 09:30N 33°44' W 118°16'1 1.2
2018-Jun-21 09:00N 33°43' W 118°16'3 6.1
2018-Jun-21 08:30N 33°46' W 118°15'0 0.0
2018-Jun-21 08:00N 33°46' W 118°15'0 0.0
2018-Jun-21 07:30N 33°46' W 118°15'0 0.0
2018-Jun-21 07:00N 33°46' W 118°15'0 0.0
2018-Jun-21 06:30N 33°46' W 118°15'0 0.0
2018-Jun-21 05:59N 33°46' W 118°15'0 0.0
2018-Jun-21 05:30N 33°46' W 118°15'2 4.3
2018-Jun-21 05:00N 33°44' W 118°17'1 1.8
2018-Jun-21 04:30N 33°44' W 118°16'0 0.0
2018-Jun-21 04:00N 33°44' W 118°16'0 0.0
2018-Jun-21 03:30N 33°44' W 118°16'0 0.1
2018-Jun-21 03:00N 33°44' W 118°16'1 2.6
2018-Jun-21 02:30N 33°45' W 118°16'1 1.4
2018-Jun-21 02:00N 33°46' W 118°17'0 0.9
2018-Jun-21 01:29N 33°45' W 118°16'0 0.0
2018-Jun-21 01:00N 33°45' W 118°16'0 0.0
2018-Jun-21 00:30N 33°45' W 118°16'0 0.0
2018-Jun-21 00:00N 33°45' W 118°16'3 5.1
2018-Jun-20 23:30N 33°46' W 118°13'0 0.5
2018-Jun-20 23:00N 33°46' W 118°13'1 3.0
2018-Jun-20 22:30N 33°44' W 118°12'0 0.8
2018-Jun-20 22:00N 33°44' W 118°12'3 5.0
2018-Jun-20 21:30N 33°46' W 118°13'0 0.3
2018-Jun-20 21:00N 33°46' W 118°13'1 1.3
2018-Jun-20 20:30N 33°46' W 118°13'3 6.4
2018-Jun-20 20:00N 33°43' W 118°16'1 1.0
2018-Jun-20 19:30N 33°44' W 118°16'0 0.0
2018-Jun-20 19:00N 33°44' W 118°16'0 0.0
2018-Jun-20 18:30N 33°44' W 118°16'0 0.0
2018-Jun-20 18:00N 33°44' W 118°16'0 0.0
2018-Jun-20 17:30N 33°44' W 118°16'0 0.0
2018-Jun-20 17:00N 33°44' W 118°16'0 0.0
2018-Jun-20 16:30N 33°44' W 118°16'0 0.0
2018-Jun-20 16:00N 33°44' W 118°16'0 0.0
2018-Jun-20 15:30N 33°44' W 118°16'0 0.0
2018-Jun-20 15:00N 33°44' W 118°16'2 4.2
2018-Jun-20 14:30N 33°44' W 118°13'1 1.8
2018-Jun-20 14:00N 33°44' W 118°12'3 5.7
2018-Jun-20 13:30N 33°43' W 118°15'1 2.1
2018-Jun-20 13:00N 33°44' W 118°16'0 0.0
2018-Jun-20 12:30N 33°44' W 118°16'0 0.0
2018-Jun-20 12:00N 33°44' W 118°16'0 0.0
2018-Jun-20 11:30N 33°44' W 118°16'0 0.0
2018-Jun-20 10:59N 33°44' W 118°16'0 0.0
2018-Jun-20 10:30N 33°44' W 118°16'0 0.0
2018-Jun-20 09:59N 33°44' W 118°16'0 0.0
2018-Jun-20 09:30N 33°44' W 118°16'0 0.0
2018-Jun-20 09:00N 33°44' W 118°16'0 0.0
2018-Jun-20 08:28N 33°44' W 118°16'0 0.0
2018-Jun-20 08:00N 33°44' W 118°16'0 0.0
2018-Jun-20 07:30N 33°44' W 118°16'0 0.0
2018-Jun-20 07:00N 33°44' W 118°16'0 0.1
2018-Jun-20 06:30N 33°44' W 118°16'0 0.9
2018-Jun-20 06:00N 33°44' W 118°15'0 0.7
2018-Jun-20 05:31N 33°44' W 118°16'0 0.0
2018-Jun-20 05:00N 33°44' W 118°16'0 0.0
2018-Jun-20 04:30N 33°44' W 118°16'0 0.0
2018-Jun-20 04:00N 33°44' W 118°16'0 0.0
2018-Jun-20 03:30N 33°44' W 118°16'0 0.0
2018-Jun-20 03:00N 33°44' W 118°16'1 1.3
2018-Jun-20 02:31N 33°43' W 118°16'2 3.9
2018-Jun-20 02:00N 33°45' W 118°16'0 0.2
2018-Jun-20 01:30N 33°45' W 118°16'0 0.0
2018-Jun-20 01:00N 33°45' W 118°16'1 1.5
2018-Jun-20 00:30N 33°45' W 118°16'1 1.9
2018-Jun-20 00:00N 33°44' W 118°16'115.6
2018-Jun-19 23:56N 33°45' W 118°16'1 3.0
2018-Jun-19 23:30N 33°44' W 118°16'01697.8
2018-Jun-19 23:30N 33°44' W 118°16'0 1.0
2018-Jun-19 23:00N 33°44' W 118°16'25630.7
2018-Jun-19 23:00N 33°42' W 118°15'3 6.1
2018-Jun-19 22:30N 33°45' W 118°16'77856.9
2018-Jun-19 22:30N 33°39' W 118°15'612.7
2018-Jun-19 22:00N 33°45' W 118°16'10701.2
2018-Jun-19 22:00N 33°35' W 118°16'918.7
2018-Jun-19 21:30N 33°44' W 118°17'13993.5
2018-Jun-19 21:30N 33°32' W 118°17'1224.2
2018-Jun-19 21:00N 33°43' W 118°16'152647.5
2018-Jun-19 21:00N 33°28' W 118°18'1632.2
2018-Jun-19 20:30N 33°44' W 118°16'2352.9
2018-Jun-19 20:04N 33°21' W 118°18'22341.8
2018-Jun-19 20:00N 33°43' W 118°16'3 5.3
2018-Jun-19 19:30N 33°46' W 118°16'3 5.2
2018-Jun-19 18:59N 33°43' W 118°16'2390.2
2018-Jun-19 18:44N 33°21' W 118°19'23104.4
2018-Jun-19 18:30N 33°44' W 118°16'2089.3
2018-Jun-19 18:17N 33°24' W 118°18'2 7.7
2018-Jun-19 18:00N 33°26' W 118°18'183595.5
2018-Jun-19 18:00N 33°44' W 118°16'0 0.0
2018-Jun-19 17:30N 33°44' W 118°16'1425679.5
2018-Jun-19 17:30N 33°30' W 118°17'1428.6
2018-Jun-19 17:00N 33°44' W 118°16'111675.7
2018-Jun-19 17:00N 33°33' W 118°16'1121.4
2018-Jun-19 16:30N 33°44' W 118°16'72134.9
2018-Jun-19 16:30N 33°37' W 118°16'714.5
2018-Jun-19 16:00N 33°44' W 118°16'4976.6
2018-Jun-19 16:00N 33°40' W 118°15'3 7.0
2018-Jun-19 15:30N 33°44' W 118°15'1451.3
2018-Jun-19 15:30N 33°43' W 118°16'2 3.3
2018-Jun-19 15:00N 33°44' W 118°17'1905.0
2018-Jun-19 15:00N 33°45' W 118°16'1 1.0
2018-Jun-19 14:28N 33°45' W 118°16'0 0.0
2018-Jun-19 14:00N 33°45' W 118°16'0 0.0
2018-Jun-19 13:30N 33°45' W 118°16'0 0.0
2018-Jun-19 13:00N 33°45' W 118°16'2 3.9
2018-Jun-19 12:30N 33°43' W 118°16'1 1.8
2018-Jun-19 12:00N 33°44' W 118°15'1 2.0
2018-Jun-19 11:30N 33°43' W 118°15'0 0.2
2018-Jun-19 11:00N 33°43' W 118°15'1 0.6
2018-Jun-19 10:12N 33°43' W 118°16'1 4.2
2018-Jun-19 10:00N 33°44' W 118°16'1 2.7
2018-Jun-19 09:30N 33°45' W 118°16'1 1.6
2018-Jun-19 09:00N 33°46' W 118°16'1 1.5
2018-Jun-19 08:30N 33°45' W 118°16'0 0.0
2018-Jun-19 08:00N 33°45' W 118°16'1 2.7
2018-Jun-19 07:30N 33°44' W 118°16'0 0.0
2018-Jun-19 07:00N 33°44' W 118°16'2 3.3
2018-Jun-19 06:30N 33°45' W 118°16'0 0.0
2018-Jun-19 06:00N 33°45' W 118°16'0 0.0
2018-Jun-19 05:30N 33°45' W 118°16'0 0.0
2018-Jun-19 05:00N 33°45' W 118°16'2 4.1
2018-Jun-19 04:30N 33°43' W 118°16'1 1.2
2018-Jun-19 04:00N 33°44' W 118°16'0 0.0
2018-Jun-19 03:30N 33°44' W 118°16'1 1.2
2018-Jun-19 03:00N 33°44' W 118°16'2 3.6
2018-Jun-19 02:30N 33°46' W 118°16'2 4.9
2018-Jun-19 02:01N 33°43' W 118°16'216.8
2018-Jun-19 01:54N 33°45' W 118°16'1 3.6
2018-Jun-19 01:30N 33°44' W 118°16'1347.9
2018-Jun-19 01:30N 33°44' W 118°16'2 4.7
2018-Jun-19 01:00N 33°42' W 118°15'2175.7
2018-Jun-19 01:00N 33°44' W 118°15'0 0.3
2018-Jun-19 00:30N 33°44' W 118°16'66763.2
2018-Jun-19 00:30N 33°38' W 118°15'611.2
2018-Jun-19 00:00N 33°44' W 118°16'9808.5
2018-Jun-19 00:00N 33°34' W 118°16'919.1
2018-Jun-18 23:30N 33°44' W 118°16'1315487.7
2018-Jun-18 23:30N 33°31' W 118°16'1529.5
2018-Jun-18 23:00N 33°45' W 118°16'181047.1
2018-Jun-18 22:59N 33°27' W 118°17'1836.3
2018-Jun-18 22:30N 33°45' W 118°16'3 5.1
2018-Jun-18 22:00N 33°43' W 118°15'1 2.9
2018-Jun-18 21:30N 33°44' W 118°16'0 0.0
2018-Jun-18 21:00N 33°44' W 118°16'0 0.1
2018-Jun-18 20:30N 33°44' W 118°16'1 2.7
2018-Jun-18 20:00N 33°43' W 118°15'1 2.0
2018-Jun-18 19:30N 33°43' W 118°16'0 0.9
2018-Jun-18 19:00N 33°44' W 118°16'2320671.7
2018-Jun-18 19:00N 33°21' W 118°18'2347.1
2018-Jun-18 18:30N 33°44' W 118°16'195291.0
2018-Jun-18 18:30N 33°25' W 118°18'1938.5
2018-Jun-18 18:00N 33°44' W 118°16'151230.8
2018-Jun-18 18:00N 33°29' W 118°17'1530.8
2018-Jun-18 17:30N 33°44' W 118°16'113093.6
2018-Jun-18 17:30N 33°33' W 118°16'1122.5
2018-Jun-18 17:00N 33°44' W 118°16'76577.4
2018-Jun-18 17:00N 33°37' W 118°16'714.6
2018-Jun-18 16:30N 33°44' W 118°16'36112.5
2018-Jun-18 16:30N 33°40' W 118°15'3 5.4
2018-Jun-18 16:00N 33°43' W 118°16'1256.4
2018-Jun-18 16:00N 33°44' W 118°16'0 0.0
2018-Jun-18 15:30N 33°44' W 118°16'11379.2
2018-Jun-18 15:30N 33°43' W 118°16'1 3.0
2018-Jun-18 15:00N 33°45' W 118°17'1485.2
2018-Jun-18 15:00N 33°45' W 118°16'1 1.7
2018-Jun-18 14:30N 33°45' W 118°17'1 1.9
2018-Jun-18 14:00N 33°44' W 118°16'0 0.1
2018-Jun-18 13:30N 33°44' W 118°16'0 0.8
2018-Jun-18 13:00N 33°44' W 118°16'2 4.6
2018-Jun-18 12:30N 33°46' W 118°16'1 1.1
2018-Jun-18 12:00N 33°45' W 118°17'2 3.6
2018-Jun-18 11:29N 33°44' W 118°16'1 3.1
2018-Jun-18 11:00N 33°43' W 118°15'1 2.8
2018-Jun-18 10:30N 33°44' W 118°16'0 0.0
2018-Jun-18 10:00N 33°44' W 118°16'0 0.0
2018-Jun-18 09:30N 33°44' W 118°16'0 0.0
2018-Jun-18 09:00N 33°44' W 118°16'0 0.0
2018-Jun-18 08:30N 33°44' W 118°16'0 0.0
2018-Jun-18 08:00N 33°44' W 118°16'1 1.2
2018-Jun-18 07:30N 33°43' W 118°16'2 3.3
2018-Jun-18 07:00N 33°45' W 118°16'1 2.2
2018-Jun-18 06:30N 33°44' W 118°16'0 0.0
2018-Jun-18 06:00N 33°44' W 118°16'0 0.0
2018-Jun-18 05:30N 33°44' W 118°16'0 0.0
2018-Jun-18 05:00N 33°44' W 118°16'0 0.0
2018-Jun-18 04:30N 33°44' W 118°16'0 0.0
2018-Jun-18 04:00N 33°44' W 118°16'0 0.0
2018-Jun-18 03:30N 33°44' W 118°16'0 0.0
2018-Jun-18 03:00N 33°44' W 118°16'0 0.0
2018-Jun-18 02:30N 33°44' W 118°16'0 0.0
2018-Jun-18 02:00N 33°44' W 118°16'0 0.0
2018-Jun-18 01:30N 33°44' W 118°16'0 0.0
2018-Jun-18 01:00N 33°44' W 118°16'0 0.0
2018-Jun-18 00:30N 33°44' W 118°16'1 2.2
2018-Jun-18 00:00N 33°45' W 118°16'1 1.7
2018-Jun-17 23:30N 33°44' W 118°17'1 1.4
2018-Jun-17 23:00N 33°44' W 118°16'2 3.9
2018-Jun-17 22:30N 33°43' W 118°13'2 3.7
2018-Jun-17 22:00N 33°44' W 118°12'0 0.8
2018-Jun-17 21:30N 33°44' W 118°11'1 1.5
2018-Jun-17 21:00N 33°44' W 118°11'1 2.0
2018-Jun-17 20:30N 33°44' W 118°12'3 6.9
2018-Jun-17 20:00N 33°44' W 118°16'0 0.0
2018-Jun-17 19:30N 33°44' W 118°16'0 0.0
2018-Jun-17 19:00N 33°44' W 118°16'0 0.0
2018-Jun-17 18:30N 33°44' W 118°16'0 0.0
2018-Jun-17 18:00N 33°44' W 118°16'0 0.0
2018-Jun-17 17:30N 33°44' W 118°16'1 1.3
2018-Jun-17 17:00N 33°44' W 118°16'0 0.7
2018-Jun-17 16:30N 33°44' W 118°16'2 3.5
2018-Jun-17 16:00N 33°45' W 118°16'0 0.2
2018-Jun-17 15:30N 33°45' W 118°16'1 1.5
2018-Jun-17 15:00N 33°46' W 118°16'2 3.1
2018-Jun-17 14:30N 33°44' W 118°17'1 1.7
2018-Jun-17 14:00N 33°44' W 118°16'0 0.0
2018-Jun-17 13:30N 33°44' W 118°16'0 0.1
2018-Jun-17 13:00N 33°44' W 118°16'0 0.4
2018-Jun-17 12:30N 33°44' W 118°16'1 1.4
2018-Jun-17 12:01N 33°44' W 118°15'0 0.0
2018-Jun-17 11:30N 33°44' W 118°15'0 0.2
2018-Jun-17 11:00N 33°44' W 118°15'0 0.9
2018-Jun-17 10:30N 33°44' W 118°16'0 0.0
2018-Jun-17 10:00N 33°44' W 118°16'0 0.0
2018-Jun-17 09:30N 33°44' W 118°16'0 0.0
2018-Jun-17 09:00N 33°44' W 118°16'0 0.0
2018-Jun-17 08:30N 33°44' W 118°16'0 0.0
2018-Jun-17 08:00N 33°44' W 118°16'0 0.0
2018-Jun-17 07:30N 33°44' W 118°16'0 0.0
2018-Jun-17 07:00N 33°44' W 118°16'0 0.0
2018-Jun-17 06:30N 33°44' W 118°16'0 0.0
2018-Jun-17 06:00N 33°44' W 118°16'0 0.0
2018-Jun-17 05:30N 33°44' W 118°16'0 0.0
2018-Jun-17 04:59N 33°44' W 118°16'0 0.0
2018-Jun-17 04:29N 33°44' W 118°16'2 3.5
2018-Jun-17 04:00N 33°43' W 118°14'2 4.2
2018-Jun-17 03:30N 33°45' W 118°13'0 0.1
2018-Jun-17 03:00N 33°45' W 118°13'2 3.4
2018-Jun-17 02:30N 33°44' W 118°12'0 0.5
2018-Jun-17 02:00N 33°44' W 118°12'1 1.2
2018-Jun-17 01:30N 33°44' W 118°12'1 2.6
2018-Jun-17 01:00N 33°45' W 118°13'0 0.1
2018-Jun-17 00:30N 33°45' W 118°13'3 5.1
2018-Jun-17 00:00N 33°43' W 118°14'1 2.9
2018-Jun-16 23:30N 33°44' W 118°16'0 0.0
2018-Jun-16 23:00N 33°44' W 118°16'0 0.0
2018-Jun-16 22:30N 33°44' W 118°16'0 0.8
2018-Jun-16 22:00N 33°44' W 118°15'1 1.9
2018-Jun-16 21:30N 33°43' W 118°16'1 1.7
2018-Jun-16 21:00N 33°43' W 118°15'1 2.8
2018-Jun-16 20:30N 33°44' W 118°16'3 5.3
2018-Jun-16 19:58N 33°44' W 118°12'2 3.8
2018-Jun-16 19:30N 33°45' W 118°11'0 0.0
2018-Jun-16 19:00N 33°45' W 118°11'3 6.4
2018-Jun-16 18:29N 33°43' W 118°14'1 3.0
2018-Jun-16 18:00N 33°44' W 118°16'0 0.0
2018-Jun-16 17:30N 33°44' W 118°16'0 0.0
2018-Jun-16 17:00N 33°44' W 118°16'0 0.0
2018-Jun-16 16:30N 33°44' W 118°16'0 0.0
2018-Jun-16 16:00N 33°44' W 118°16'0 0.0
2018-Jun-16 15:30N 33°44' W 118°16'0 0.0
2018-Jun-16 15:00N 33°44' W 118°16'0 0.0
2018-Jun-16 14:29N 33°44' W 118°16'0 0.0
2018-Jun-16 14:00N 33°44' W 118°16'0 0.0
2018-Jun-16 13:30N 33°44' W 118°16'1 1.8
2018-Jun-16 13:00N 33°44' W 118°17'1 3.0
2018-Jun-16 12:30N 33°46' W 118°16'0 0.1
2018-Jun-16 12:00N 33°46' W 118°16'0 0.1
2018-Jun-16 11:30N 33°46' W 118°16'0 0.1
2018-Jun-16 11:00N 33°46' W 118°16'0 0.0
2018-Jun-16 10:30N 33°46' W 118°16'0 0.3
2018-Jun-16 10:00N 33°46' W 118°17'1 1.5
2018-Jun-16 09:30N 33°45' W 118°16'2 4.6
2018-Jun-16 09:00N 33°43' W 118°15'1 2.0
2018-Jun-16 08:30N 33°44' W 118°16'0 0.0
2018-Jun-16 08:00N 33°44' W 118°16'1 1.6
2018-Jun-16 07:30N 33°44' W 118°17'2 3.9
2018-Jun-16 07:00N 33°46' W 118°15'0 0.6
2018-Jun-16 06:30N 33°46' W 118°15'3 5.2
2018-Jun-16 05:59N 33°43' W 118°16'1 1.4
2018-Jun-16 05:30N 33°44' W 118°16'0 0.0
2018-Jun-16 05:00N 33°44' W 118°16'0 0.0
2018-Jun-16 04:30N 33°44' W 118°16'0 0.0
2018-Jun-16 04:00N 33°44' W 118°16'1 4.1
2018-Jun-16 03:41N 33°45' W 118°16'0 1.9
2018-Jun-16 03:30N 33°45' W 118°16'11217.4
2018-Jun-16 03:30N 33°44' W 118°16'0 0.0
2018-Jun-16 03:00N 33°44' W 118°16'1459.5
2018-Jun-16 03:00N 33°43' W 118°16'1 2.1
2018-Jun-16 02:30N 33°44' W 118°16'4841.0
2018-Jun-16 02:30N 33°39' W 118°15'4 9.0
2018-Jun-16 02:00N 33°44' W 118°16'8528.5
2018-Jun-16 01:59N 33°36' W 118°16'4 8.2
2018-Jun-16 01:30N 33°32' W 118°18'1244250.9
2018-Jun-16 01:30N 33°44' W 118°16'0 0.1
2018-Jun-16 01:00N 33°44' W 118°16'163283.8
2018-Jun-16 01:00N 33°28' W 118°19'1735.0
2018-Jun-16 00:30N 33°45' W 118°16'22262.2
2018-Jun-16 00:25N 33°23' W 118°21'2252.6
2018-Jun-16 00:00N 33°45' W 118°17'23397.1
2018-Jun-15 23:57N 33°22' W 118°21'2351.9
2018-Jun-15 23:30N 33°45' W 118°17'232848.3
2018-Jun-15 23:30N 33°22' W 118°21'2347.5
2018-Jun-15 23:00N 33°45' W 118°16'23122.5
2018-Jun-15 22:49N 33°22' W 118°21'2272.1
2018-Jun-15 22:30N 33°44' W 118°17'22577.3
2018-Jun-15 22:28N 33°22' W 118°21'2145.3
2018-Jun-15 22:00N 33°42' W 118°15'211558.7
2018-Jun-15 22:00N 33°22' W 118°21'2245.2
2018-Jun-15 21:30N 33°44' W 118°16'222825.4
2018-Jun-15 21:30N 33°22' W 118°21'2244.7
2018-Jun-15 21:00N 33°44' W 118°16'22376.7
2018-Jun-15 20:57N 33°22' W 118°21'2249.4
2018-Jun-15 20:30N 33°44' W 118°16'224944.4
2018-Jun-15 20:30N 33°22' W 118°21'2244.6
2018-Jun-15 20:00N 33°44' W 118°16'2283.3
2018-Jun-15 19:45N 33°22' W 118°21'2397.8
2018-Jun-15 19:30N 33°45' W 118°16'23144.2
2018-Jun-15 19:21N 33°22' W 118°21'2368.6
2018-Jun-15 19:00N 33°45' W 118°16'1 2.6
2018-Jun-15 18:30N 33°44' W 118°16'22180.4
2018-Jun-15 18:23N 33°22' W 118°21'2257.1
2018-Jun-15 18:00N 33°44' W 118°16'22342.5
2018-Jun-15 17:56N 33°22' W 118°21'2251.5
2018-Jun-15 17:30N 33°44' W 118°16'19137.3
2018-Jun-15 17:22N 33°25' W 118°20'1952.4
2018-Jun-15 17:00N 33°44' W 118°16'16666.7
2018-Jun-15 16:59N 33°28' W 118°19'1633.5
2018-Jun-15 16:30N 33°44' W 118°16'12926.4
2018-Jun-15 16:29N 33°32' W 118°18'4 7.8
2018-Jun-15 16:00N 33°35' W 118°17'92821.1
2018-Jun-15 16:00N 33°44' W 118°16'  
Track history (hours):
 
Tides and Currents Weather Stations Pressure Air Temp Water Temp Dewpoint Dewpoint Depression Visibility Wind Speed Wind Dir Waves Ship Positions

Lela Franco

Owner: Harley Marine Services, Inc, Seattle, WA. More information available from US FCC via Universal Licensing System and Coast Guard Vessel Documentation Center.

Last reported at 2018-Jun-25 15:31 UTC. Time now 2018-Jun-25 15:42 UTC.
Position N 33°43' W 118°13'.

Length 18 m; draft 3 m.

Type: Towing. MMSI: 366926730.

Date/timePositionNaut miles runAvg speedWind from/ knotsBaromVisibWave heightAir tempDewpointWater temp
2018-Jun-25 15:31N 33°43' W 118°13'0 0.6
2018-Jun-25 15:00N 33°44' W 118°13'1 2.4
2018-Jun-25 14:30N 33°45' W 118°13'1 1.3
2018-Jun-25 14:00N 33°44' W 118°13'1 2.2
2018-Jun-25 13:30N 33°45' W 118°13'0 0.3
2018-Jun-25 13:00N 33°45' W 118°13'2 3.4
2018-Jun-25 12:30N 33°44' W 118°12'0 0.1
2018-Jun-25 12:00N 33°44' W 118°12'1 2.1
2018-Jun-25 11:30N 33°45' W 118°13'2 3.3
2018-Jun-25 10:58N 33°46' W 118°14'1 3.1
2018-Jun-25 10:30N 33°45' W 118°13'0 0.0
2018-Jun-25 10:00N 33°45' W 118°13'0 0.0
2018-Jun-25 09:30N 33°45' W 118°13'0 0.0
2018-Jun-25 09:00N 33°45' W 118°13'1 1.9
2018-Jun-25 08:30N 33°46' W 118°13'1 1.2
2018-Jun-25 08:00N 33°46' W 118°13'0 0.2
2018-Jun-25 07:29N 33°46' W 118°13'2 3.3
2018-Jun-25 07:00N 33°46' W 118°15'2 3.1
2018-Jun-25 06:30N 33°45' W 118°16'1 2.4
2018-Jun-25 06:01N 33°46' W 118°16'1 2.4
2018-Jun-25 05:30N 33°45' W 118°16'1 2.2
2018-Jun-25 05:00N 33°44' W 118°16'0 0.0
2018-Jun-25 04:30N 33°44' W 118°16'0 0.0
2018-Jun-25 04:00N 33°44' W 118°16'0 0.0
2018-Jun-25 03:30N 33°44' W 118°16'0 0.0
2018-Jun-25 03:00N 33°44' W 118°16'0 0.0
2018-Jun-25 02:30N 33°44' W 118°16'1 2.2
2018-Jun-25 02:00N 33°43' W 118°15'3 6.3
2018-Jun-25 01:30N 33°45' W 118°12'0 0.7
2018-Jun-25 01:01N 33°45' W 118°12'1 2.0
2018-Jun-25 00:30N 33°44' W 118°11'0 0.6
2018-Jun-25 00:00N 33°44' W 118°12'0 0.2
2018-Jun-24 23:30N 33°44' W 118°12'3 5.7
2018-Jun-24 23:00N 33°43' W 118°15'3 5.7
2018-Jun-24 22:30N 33°45' W 118°16'1 1.4
2018-Jun-24 22:00N 33°46' W 118°16'1 2.2
2018-Jun-24 21:30N 33°45' W 118°16'2 4.9
2018-Jun-24 21:00N 33°43' W 118°15'0 0.4
2018-Jun-24 20:30N 33°43' W 118°15'2 4.4
2018-Jun-24 20:00N 33°45' W 118°17'1 2.9
2018-Jun-24 19:30N 33°46' W 118°16'2 4.8
2018-Jun-24 19:00N 33°44' W 118°16'1 1.2
2018-Jun-24 18:30N 33°44' W 118°16'0 0.0
2018-Jun-24 18:00N 33°44' W 118°16'0 0.0
2018-Jun-24 17:30N 33°44' W 118°16'0 0.0
2018-Jun-24 17:00N 33°44' W 118°16'0 0.0
2018-Jun-24 16:29N 33°44' W 118°16'0 0.0
2018-Jun-24 16:00N 33°44' W 118°16'0 0.0
2018-Jun-24 15:30N 33°44' W 118°16'1 1.9
2018-Jun-24 15:00N 33°44' W 118°17'1 2.5
2018-Jun-24 14:30N 33°45' W 118°16'2 3.3
2018-Jun-24 14:00N 33°44' W 118°16'0 0.6
2018-Jun-24 13:30N 33°44' W 118°15'0 0.7
2018-Jun-24 12:57N 33°44' W 118°16'1 2.5
2018-Jun-24 12:30N 33°43' W 118°15'3 5.8
2018-Jun-24 12:00N 33°45' W 118°16'1 2.1
2018-Jun-24 11:30N 33°45' W 118°17'2 4.7
2018-Jun-24 11:00N 33°43' W 118°15'0 0.0
2018-Jun-24 10:30N 33°43' W 118°15'0 0.2
2018-Jun-24 10:00N 33°43' W 118°15'1 2.6
2018-Jun-24 09:30N 33°44' W 118°16'0 0.0
2018-Jun-24 09:00N 33°44' W 118°16'0 0.0
2018-Jun-24 08:30N 33°44' W 118°16'0 0.0
2018-Jun-24 08:00N 33°44' W 118°16'0 0.0
2018-Jun-24 07:30N 33°44' W 118°16'0 0.0
2018-Jun-24 07:00N 33°44' W 118°16'0 0.0
2018-Jun-24 06:30N 33°44' W 118°16'1 1.8
2018-Jun-24 06:00N 33°44' W 118°17'1 2.9
2018-Jun-24 05:30N 33°46' W 118°16'0 0.0
2018-Jun-24 05:00N 33°46' W 118°16'2 4.1
2018-Jun-24 04:31N 33°44' W 118°16'1 2.6
2018-Jun-24 04:01N 33°45' W 118°16'0 0.0
2018-Jun-24 04:00N 33°45' W 118°16'1248.0
2018-Jun-24 04:00N 33°44' W 118°16'0 0.0
2018-Jun-24 03:30N 33°44' W 118°16'1170.2
2018-Jun-24 03:30N 33°44' W 118°16'2 3.6
2018-Jun-24 03:00N 33°42' W 118°16'2718.7
2018-Jun-24 03:00N 33°44' W 118°16'1 2.1
2018-Jun-24 02:30N 33°45' W 118°16'519083.5
2018-Jun-24 02:30N 33°40' W 118°19'612.0
2018-Jun-24 02:01N 33°45' W 118°16'104416.3
2018-Jun-24 02:00N 33°37' W 118°22'1019.6
2018-Jun-24 01:30N 33°45' W 118°16'132101.1
2018-Jun-24 01:30N 33°34' W 118°25'1326.4
2018-Jun-24 01:00N 33°45' W 118°16'18168.6
2018-Jun-24 00:53N 33°31' W 118°29'1845.7
2018-Jun-24 00:30N 33°45' W 118°16'0 0.0
2018-Jun-24 00:00N 33°45' W 118°16'0 0.0
2018-Jun-23 23:30N 33°45' W 118°16'0 0.5
2018-Jun-23 23:00N 33°45' W 118°16'1 1.8
2018-Jun-23 22:30N 33°46' W 118°17'2292.9
2018-Jun-23 22:16N 33°28' W 118°32'2179.4
2018-Jun-23 22:00N 33°45' W 118°16'2079.8
2018-Jun-23 21:46N 33°29' W 118°31'1974.8
2018-Jun-23 21:30N 33°44' W 118°17'17246.4
2018-Jun-23 21:26N 33°31' W 118°29'1738.2
2018-Jun-23 21:00N 33°43' W 118°15'13468.4
2018-Jun-23 20:59N 33°33' W 118°26'1328.7
2018-Jun-23 20:30N 33°44' W 118°16'1018012.6
2018-Jun-23 20:30N 33°36' W 118°23'1020.0
2018-Jun-23 20:00N 33°44' W 118°16'6698.5
2018-Jun-23 20:00N 33°38' W 118°19'4 7.4
2018-Jun-23 19:30N 33°41' W 118°16'31146.4
2018-Jun-23 19:30N 33°44' W 118°16'1 1.9
2018-Jun-23 19:01N 33°43' W 118°16'44369.7
2018-Jun-23 19:00N 33°44' W 118°12'1 2.8
2018-Jun-23 18:30N 33°45' W 118°11'47908.5
2018-Jun-23 18:30N 33°45' W 118°16'5 9.2
2018-Jun-23 18:00N 33°44' W 118°11'4 7.1
2018-Jun-23 17:30N 33°43' W 118°15'1 2.2
2018-Jun-23 17:00N 33°44' W 118°16'0 0.0
2018-Jun-23 16:30N 33°44' W 118°16'0 0.0
2018-Jun-23 16:00N 33°44' W 118°16'0 0.0
2018-Jun-23 15:30N 33°44' W 118°16'0 0.0
2018-Jun-23 15:00N 33°44' W 118°16'0 0.0
2018-Jun-23 14:30N 33°44' W 118°16'0 0.0
2018-Jun-23 14:00N 33°44' W 118°16'1 1.8
2018-Jun-23 13:30N 33°44' W 118°17'1 1.6
2018-Jun-23 13:00N 33°45' W 118°16'0 0.6
2018-Jun-23 12:30N 33°45' W 118°16'0 0.0
2018-Jun-23 12:00N 33°45' W 118°16'0 0.0
2018-Jun-23 11:30N 33°45' W 118°16'0 0.0
2018-Jun-23 11:00N 33°45' W 118°16'0 0.0
2018-Jun-23 10:30N 33°45' W 118°16'0 0.0
2018-Jun-23 10:00N 33°45' W 118°16'0 0.0
2018-Jun-23 09:30N 33°45' W 118°16'0 0.0
2018-Jun-23 09:00N 33°45' W 118°16'0 0.0
2018-Jun-23 08:30N 33°45' W 118°16'0 0.0
2018-Jun-23 08:00N 33°45' W 118°16'0 0.5
2018-Jun-23 07:31N 33°46' W 118°16'0 0.3
2018-Jun-23 07:00N 33°45' W 118°16'2 4.4
2018-Jun-23 06:28N 33°43' W 118°16'0 1.0
2018-Jun-23 06:00N 33°43' W 118°16'0 0.9
2018-Jun-23 05:30N 33°44' W 118°16'0 0.0
2018-Jun-23 05:00N 33°44' W 118°16'0 0.0
2018-Jun-23 04:30N 33°44' W 118°16'0 0.0
2018-Jun-23 04:00N 33°44' W 118°16'0 0.0
2018-Jun-23 03:30N 33°44' W 118°16'0 0.0
2018-Jun-23 03:00N 33°44' W 118°16'0 0.8
2018-Jun-23 02:30N 33°43' W 118°16'1 1.5
2018-Jun-23 02:00N 33°44' W 118°15'0 0.2
2018-Jun-23 01:30N 33°44' W 118°15'0 0.2
2018-Jun-23 01:00N 33°44' W 118°15'1 1.3
2018-Jun-23 00:30N 33°44' W 118°16'2 4.3
2018-Jun-23 00:00N 33°44' W 118°13'0 0.1
2018-Jun-22 23:30N 33°44' W 118°13'0 0.0
2018-Jun-22 23:00N 33°44' W 118°13'0 0.0
2018-Jun-22 22:30N 33°44' W 118°13'1 2.8
2018-Jun-22 22:00N 33°45' W 118°13'2 3.4
2018-Jun-22 21:30N 33°44' W 118°12'1 1.3
2018-Jun-22 21:00N 33°44' W 118°13'0 0.7
2018-Jun-22 20:30N 33°44' W 118°13'0 0.4
2018-Jun-22 20:00N 33°43' W 118°13'312.5
2018-Jun-22 19:45N 33°45' W 118°16'0 0.0
2018-Jun-22 19:30N 33°45' W 118°16'3942.6
2018-Jun-22 19:30N 33°44' W 118°13'1 2.9
2018-Jun-22 19:00N 33°45' W 118°13'3641.9
2018-Jun-22 19:00N 33°45' W 118°16'0 0.0
2018-Jun-22 18:30N 33°45' W 118°16'39985.7
2018-Jun-22 18:30N 33°43' W 118°14'3 5.3
2018-Jun-22 18:01N 33°45' W 118°16'189.7
2018-Jun-22 18:00N 33°44' W 118°16'0 0.0
2018-Jun-22 17:30N 33°44' W 118°16'1558.0
2018-Jun-22 17:30N 33°45' W 118°16'1 2.5
2018-Jun-22 17:00N 33°44' W 118°16'0 0.0
2018-Jun-22 16:30N 33°44' W 118°16'0 0.0
2018-Jun-22 16:00N 33°44' W 118°16'0 0.0
2018-Jun-22 15:30N 33°44' W 118°16'1 2.7
2018-Jun-22 15:00N 33°43' W 118°14'2 4.5
2018-Jun-22 14:29N 33°45' W 118°13'0 0.0
2018-Jun-22 14:00N 33°45' W 118°13'0 0.0
2018-Jun-22 13:30N 33°45' W 118°13'0 0.0
2018-Jun-22 13:00N 33°45' W 118°13'0 0.0
2018-Jun-22 12:29N 33°45' W 118°13'0 0.0
2018-Jun-22 12:00N 33°45' W 118°13'0 0.0
2018-Jun-22 11:28N 33°45' W 118°13'0 0.0
2018-Jun-22 11:00N 33°45' W 118°13'0 0.0
2018-Jun-22 10:30N 33°45' W 118°13'0 0.0
2018-Jun-22 10:00N 33°45' W 118°13'1 2.3
2018-Jun-22 09:30N 33°46' W 118°13'0 0.4
2018-Jun-22 09:01N 33°46' W 118°13'2 4.8
2018-Jun-22 08:30N 33°44' W 118°12'1 1.4
2018-Jun-22 08:00N 33°44' W 118°12'0 0.0
2018-Jun-22 07:30N 33°44' W 118°12'0 0.0
2018-Jun-22 07:00N 33°44' W 118°12'0 0.0
2018-Jun-22 06:30N 33°44' W 118°12'0 0.0
2018-Jun-22 06:00N 33°44' W 118°12'2 3.1
2018-Jun-22 05:30N 33°44' W 118°10'2 3.2
2018-Jun-22 05:00N 33°44' W 118°12'3 6.9
2018-Jun-22 04:30N 33°44' W 118°16'0 0.4
2018-Jun-22 03:59N 33°44' W 118°16'0 0.0
2018-Jun-22 03:30N 33°44' W 118°16'0 0.0
2018-Jun-22 03:00N 33°44' W 118°16'0 0.0
2018-Jun-22 02:27N 33°44' W 118°16'0 0.2
2018-Jun-22 02:00N 33°44' W 118°16'0 0.7
2018-Jun-22 01:30N 33°44' W 118°15'1 1.4
2018-Jun-22 01:00N 33°43' W 118°16'2 3.4
2018-Jun-22 00:30N 33°45' W 118°16'1 1.5
2018-Jun-22 00:00N 33°46' W 118°16'2 3.5
2018-Jun-21 23:30N 33°44' W 118°16'1 1.2
2018-Jun-21 23:00N 33°44' W 118°16'1 6.6
2018-Jun-21 22:49N 33°45' W 118°16'1 4.1
2018-Jun-21 22:30N 33°44' W 118°16'12221.5
2018-Jun-21 22:30N 33°45' W 118°16'2 4.5
2018-Jun-21 22:00N 33°43' W 118°15'1227.1
2018-Jun-21 22:00N 33°44' W 118°16'4 8.1
2018-Jun-21 21:31N 33°40' W 118°18'4186.3
2018-Jun-21 21:29N 33°44' W 118°16'0 0.0
2018-Jun-21 21:00N 33°44' W 118°16'8225.9
2018-Jun-21 20:58N 33°38' W 118°22'816.9
2018-Jun-21 20:30N 33°44' W 118°16'0 0.0
2018-Jun-21 20:00N 33°44' W 118°16'0 0.0
2018-Jun-21 19:30N 33°44' W 118°16'0 0.0
2018-Jun-21 19:00N 33°44' W 118°16'2450.3
2018-Jun-21 18:32N 33°27' W 118°35'24792.2
2018-Jun-21 18:30N 33°43' W 118°14'0 0.3
2018-Jun-21 18:00N 33°43' W 118°14'2 3.2
2018-Jun-21 17:30N 33°44' W 118°16'0 0.8
2018-Jun-21 17:00N 33°44' W 118°16'0 0.0
2018-Jun-21 16:30N 33°44' W 118°16'0 0.0
2018-Jun-21 16:00N 33°44' W 118°16'0 0.0
2018-Jun-21 15:30N 33°44' W 118°16'0 0.0
2018-Jun-21 15:00N 33°44' W 118°16'1847.8
2018-Jun-21 14:37N 33°32' W 118°32'18158.6
2018-Jun-21 14:30N 33°44' W 118°16'1712205.1
2018-Jun-21 14:30N 33°33' W 118°31'1733.3
2018-Jun-21 14:00N 33°43' W 118°15'1289.3
2018-Jun-21 13:53N 33°36' W 118°26'1541.4
2018-Jun-21 13:31N 33°46' W 118°13'12780.4
2018-Jun-21 13:30N 33°37' W 118°23'1225.2
2018-Jun-21 13:00N 33°46' W 118°13'910449.1
2018-Jun-21 13:00N 33°39' W 118°20'4 7.7
2018-Jun-21 12:30N 33°41' W 118°16'42434.4
2018-Jun-21 12:30N 33°44' W 118°12'3 6.9
2018-Jun-21 12:00N 33°43' W 118°16'41933.5
2018-Jun-21 12:00N 33°44' W 118°12'3 6.9
2018-Jun-21 11:30N 33°44' W 118°16'11544.3
2018-Jun-21 11:30N 33°45' W 118°16'1 2.6
2018-Jun-21 11:00N 33°44' W 118°16'0 0.1
2018-Jun-21 10:30N 33°44' W 118°16'0 0.0
2018-Jun-21 10:00N 33°44' W 118°16'0 0.1
2018-Jun-21 09:30N 33°44' W 118°16'1 1.2
2018-Jun-21 09:00N 33°43' W 118°16'3 6.1
2018-Jun-21 08:30N 33°46' W 118°15'0 0.0
2018-Jun-21 08:00N 33°46' W 118°15'0 0.0
2018-Jun-21 07:30N 33°46' W 118°15'0 0.0
2018-Jun-21 07:00N 33°46' W 118°15'0 0.0
2018-Jun-21 06:30N 33°46' W 118°15'0 0.0
2018-Jun-21 05:59N 33°46' W 118°15'0 0.0
2018-Jun-21 05:30N 33°46' W 118°15'2 4.3
2018-Jun-21 05:00N 33°44' W 118°17'1 1.8
2018-Jun-21 04:30N 33°44' W 118°16'0 0.0
2018-Jun-21 04:00N 33°44' W 118°16'0 0.0
2018-Jun-21 03:30N 33°44' W 118°16'0 0.1
2018-Jun-21 03:00N 33°44' W 118°16'1 2.6
2018-Jun-21 02:30N 33°45' W 118°16'1 1.4
2018-Jun-21 02:00N 33°46' W 118°17'0 0.9
2018-Jun-21 01:29N 33°45' W 118°16'0 0.0
2018-Jun-21 01:00N 33°45' W 118°16'0 0.0
2018-Jun-21 00:30N 33°45' W 118°16'0 0.0
2018-Jun-21 00:00N 33°45' W 118°16'3 5.1
2018-Jun-20 23:30N 33°46' W 118°13'0 0.5
2018-Jun-20 23:00N 33°46' W 118°13'1 3.0
2018-Jun-20 22:30N 33°44' W 118°12'0 0.8
2018-Jun-20 22:00N 33°44' W 118°12'3 5.0
2018-Jun-20 21:30N 33°46' W 118°13'0 0.3
2018-Jun-20 21:00N 33°46' W 118°13'1 1.3
2018-Jun-20 20:30N 33°46' W 118°13'3 6.4
2018-Jun-20 20:00N 33°43' W 118°16'1 1.0
2018-Jun-20 19:30N 33°44' W 118°16'0 0.0
2018-Jun-20 19:00N 33°44' W 118°16'0 0.0
2018-Jun-20 18:30N 33°44' W 118°16'0 0.0
2018-Jun-20 18:00N 33°44' W 118°16'0 0.0
2018-Jun-20 17:30N 33°44' W 118°16'0 0.0
2018-Jun-20 17:00N 33°44' W 118°16'0 0.0
2018-Jun-20 16:30N 33°44' W 118°16'0 0.0
2018-Jun-20 16:00N 33°44' W 118°16'0 0.0
2018-Jun-20 15:30N 33°44' W 118°16'0 0.0
2018-Jun-20 15:00N 33°44' W 118°16'2 4.2
2018-Jun-20 14:30N 33°44' W 118°13'1 1.8
2018-Jun-20 14:00N 33°44' W 118°12'3 5.7
2018-Jun-20 13:30N 33°43' W 118°15'1 2.1
2018-Jun-20 13:00N 33°44' W 118°16'0 0.0
2018-Jun-20 12:30N 33°44' W 118°16'0 0.0
2018-Jun-20 12:00N 33°44' W 118°16'0 0.0
2018-Jun-20 11:30N 33°44' W 118°16'0 0.0
2018-Jun-20 10:59N 33°44' W 118°16'0 0.0
2018-Jun-20 10:30N 33°44' W 118°16'0 0.0
2018-Jun-20 09:59N 33°44' W 118°16'0 0.0
2018-Jun-20 09:30N 33°44' W 118°16'0 0.0
2018-Jun-20 09:00N 33°44' W 118°16'0 0.0
2018-Jun-20 08:28N 33°44' W 118°16'0 0.0
2018-Jun-20 08:00N 33°44' W 118°16'0 0.0
2018-Jun-20 07:30N 33°44' W 118°16'0 0.0
2018-Jun-20 07:00N 33°44' W 118°16'0 0.1
2018-Jun-20 06:30N 33°44' W 118°16'0 0.9
2018-Jun-20 06:00N 33°44' W 118°15'0 0.7
2018-Jun-20 05:31N 33°44' W 118°16'0 0.0
2018-Jun-20 05:00N 33°44' W 118°16'0 0.0
2018-Jun-20 04:30N 33°44' W 118°16'0 0.0
2018-Jun-20 04:00N 33°44' W 118°16'0 0.0
2018-Jun-20 03:30N 33°44' W 118°16'0 0.0
2018-Jun-20 03:00N 33°44' W 118°16'1 1.3
2018-Jun-20 02:31N 33°43' W 118°16'2 3.9
2018-Jun-20 02:00N 33°45' W 118°16'0 0.2
2018-Jun-20 01:30N 33°45' W 118°16'0 0.0
2018-Jun-20 01:00N 33°45' W 118°16'1 1.5
2018-Jun-20 00:30N 33°45' W 118°16'1 1.9
2018-Jun-20 00:00N 33°44' W 118°16'115.6
2018-Jun-19 23:56N 33°45' W 118°16'1 3.0
2018-Jun-19 23:30N 33°44' W 118°16'01697.8
2018-Jun-19 23:30N 33°44' W 118°16'0 1.0
2018-Jun-19 23:00N 33°44' W 118°16'25630.7
2018-Jun-19 23:00N 33°42' W 118°15'3 6.1
2018-Jun-19 22:30N 33°45' W 118°16'77856.9
2018-Jun-19 22:30N 33°39' W 118°15'612.7
2018-Jun-19 22:00N 33°45' W 118°16'10701.2
2018-Jun-19 22:00N 33°35' W 118°16'918.7
2018-Jun-19 21:30N 33°44' W 118°17'13993.5
2018-Jun-19 21:30N 33°32' W 118°17'1224.2
2018-Jun-19 21:00N 33°43' W 118°16'152647.5
2018-Jun-19 21:00N 33°28' W 118°18'1632.2
2018-Jun-19 20:30N 33°44' W 118°16'2352.9
2018-Jun-19 20:04N 33°21' W 118°18'22341.8
2018-Jun-19 20:00N 33°43' W 118°16'3 5.3
2018-Jun-19 19:30N 33°46' W 118°16'3 5.2
2018-Jun-19 18:59N 33°43' W 118°16'2390.2
2018-Jun-19 18:44N 33°21' W 118°19'23104.4
2018-Jun-19 18:30N 33°44' W 118°16'2089.3
2018-Jun-19 18:17N 33°24' W 118°18'2 7.7
2018-Jun-19 18:00N 33°26' W 118°18'183595.5
2018-Jun-19 18:00N 33°44' W 118°16'0 0.0
2018-Jun-19 17:30N 33°44' W 118°16'1425679.5
2018-Jun-19 17:30N 33°30' W 118°17'1428.6
2018-Jun-19 17:00N 33°44' W 118°16'111675.7
2018-Jun-19 17:00N 33°33' W 118°16'1121.4
2018-Jun-19 16:30N 33°44' W 118°16'72134.9
2018-Jun-19 16:30N 33°37' W 118°16'714.5
2018-Jun-19 16:00N 33°44' W 118°16'4976.6
2018-Jun-19 16:00N 33°40' W 118°15'3 7.0
2018-Jun-19 15:30N 33°44' W 118°15'1451.3
2018-Jun-19 15:30N 33°43' W 118°16'2 3.3
2018-Jun-19 15:00N 33°44' W 118°17'1905.0
2018-Jun-19 15:00N 33°45' W 118°16'1 1.0
2018-Jun-19 14:28N 33°45' W 118°16'0 0.0
2018-Jun-19 14:00N 33°45' W 118°16'0 0.0
2018-Jun-19 13:30N 33°45' W 118°16'0 0.0
2018-Jun-19 13:00N 33°45' W 118°16'2 3.9
2018-Jun-19 12:30N 33°43' W 118°16'1 1.8
2018-Jun-19 12:00N 33°44' W 118°15'1 2.0
2018-Jun-19 11:30N 33°43' W 118°15'0 0.2
2018-Jun-19 11:00N 33°43' W 118°15'1 0.6
2018-Jun-19 10:12N 33°43' W 118°16'1 4.2
2018-Jun-19 10:00N 33°44' W 118°16'1 2.7
2018-Jun-19 09:30N 33°45' W 118°16'1 1.6
2018-Jun-19 09:00N 33°46' W 118°16'1 1.5
2018-Jun-19 08:30N 33°45' W 118°16'0 0.0
2018-Jun-19 08:00N 33°45' W 118°16'1 2.7
2018-Jun-19 07:30N 33°44' W 118°16'0 0.0
2018-Jun-19 07:00N 33°44' W 118°16'2 3.3
2018-Jun-19 06:30N 33°45' W 118°16'0 0.0
2018-Jun-19 06:00N 33°45' W 118°16'0 0.0
2018-Jun-19 05:30N 33°45' W 118°16'0 0.0
2018-Jun-19 05:00N 33°45' W 118°16'2 4.1
2018-Jun-19 04:30N 33°43' W 118°16'1 1.2
2018-Jun-19 04:00N 33°44' W 118°16'0 0.0
2018-Jun-19 03:30N 33°44' W 118°16'1 1.2
2018-Jun-19 03:00N 33°44' W 118°16'2 3.6
2018-Jun-19 02:30N 33°46' W 118°16'2 4.9
2018-Jun-19 02:01N 33°43' W 118°16'216.8
2018-Jun-19 01:54N 33°45' W 118°16'1 3.6
2018-Jun-19 01:30N 33°44' W 118°16'1347.9
2018-Jun-19 01:30N 33°44' W 118°16'2 4.7
2018-Jun-19 01:00N 33°42' W 118°15'2175.7
2018-Jun-19 01:00N 33°44' W 118°15'0 0.3
2018-Jun-19 00:30N 33°44' W 118°16'66763.2
2018-Jun-19 00:30N 33°38' W 118°15'611.2
2018-Jun-19 00:00N 33°44' W 118°16'9808.5
2018-Jun-19 00:00N 33°34' W 118°16'919.1
2018-Jun-18 23:30N 33°44' W 118°16'1315487.7
2018-Jun-18 23:30N 33°31' W 118°16'1529.5
2018-Jun-18 23:00N 33°45' W 118°16'181047.1
2018-Jun-18 22:59N 33°27' W 118°17'1836.3
2018-Jun-18 22:30N 33°45' W 118°16'3 5.1
2018-Jun-18 22:00N 33°43' W 118°15'1 2.9
2018-Jun-18 21:30N 33°44' W 118°16'0 0.0
2018-Jun-18 21:00N 33°44' W 118°16'0 0.1
2018-Jun-18 20:30N 33°44' W 118°16'1 2.7
2018-Jun-18 20:00N 33°43' W 118°15'1 2.0
2018-Jun-18 19:30N 33°43' W 118°16'0 0.9
2018-Jun-18 19:00N 33°44' W 118°16'2320671.7
2018-Jun-18 19:00N 33°21' W 118°18'2347.1
2018-Jun-18 18:30N 33°44' W 118°16'195291.0
2018-Jun-18 18:30N 33°25' W 118°18'1938.5
2018-Jun-18 18:00N 33°44' W 118°16'151230.8
2018-Jun-18 18:00N 33°29' W 118°17'1530.8
2018-Jun-18 17:30N 33°44' W 118°16'113093.6
2018-Jun-18 17:30N 33°33' W 118°16'1122.5
2018-Jun-18 17:00N 33°44' W 118°16'76577.4
2018-Jun-18 17:00N 33°37' W 118°16'714.6
2018-Jun-18 16:30N 33°44' W 118°16'36112.5
2018-Jun-18 16:30N 33°40' W 118°15'3 5.4
2018-Jun-18 16:00N 33°43' W 118°16'1256.4
2018-Jun-18 16:00N 33°44' W 118°16'0 0.0
2018-Jun-18 15:30N 33°44' W 118°16'11379.2
2018-Jun-18 15:30N 33°43' W 118°16'1 3.0
2018-Jun-18 15:00N 33°45' W 118°17'1485.2
2018-Jun-18 15:00N 33°45' W 118°16'1 1.7
2018-Jun-18 14:30N 33°45' W 118°17'1 1.9
2018-Jun-18 14:00N 33°44' W 118°16'0 0.1
2018-Jun-18 13:30N 33°44' W 118°16'0 0.8
2018-Jun-18 13:00N 33°44' W 118°16'2 4.6
2018-Jun-18 12:30N 33°46' W 118°16'1 1.1
2018-Jun-18 12:00N 33°45' W 118°17'2 3.6
2018-Jun-18 11:29N 33°44' W 118°16'1 3.1
2018-Jun-18 11:00N 33°43' W 118°15'1 2.8
2018-Jun-18 10:30N 33°44' W 118°16'0 0.0
2018-Jun-18 10:00N 33°44' W 118°16'0 0.0
2018-Jun-18 09:30N 33°44' W 118°16'0 0.0
2018-Jun-18 09:00N 33°44' W 118°16'0 0.0
2018-Jun-18 08:30N 33°44' W 118°16'0 0.0
2018-Jun-18 08:00N 33°44' W 118°16'1 1.2
2018-Jun-18 07:30N 33°43' W 118°16'2 3.3
2018-Jun-18 07:00N 33°45' W 118°16'1 2.2
2018-Jun-18 06:30N 33°44' W 118°16'0 0.0
2018-Jun-18 06:00N 33°44' W 118°16'0 0.0
2018-Jun-18 05:30N 33°44' W 118°16'0 0.0
2018-Jun-18 05:00N 33°44' W 118°16'0 0.0
2018-Jun-18 04:30N 33°44' W 118°16'0 0.0
2018-Jun-18 04:00N 33°44' W 118°16'0 0.0
2018-Jun-18 03:30N 33°44' W 118°16'0 0.0
2018-Jun-18 03:00N 33°44' W 118°16'0 0.0
2018-Jun-18 02:30N 33°44' W 118°16'0 0.0
2018-Jun-18 02:00N 33°44' W 118°16'0 0.0
2018-Jun-18 01:30N 33°44' W 118°16'0 0.0
2018-Jun-18 01:00N 33°44' W 118°16'0 0.0
2018-Jun-18 00:30N 33°44' W 118°16'1 2.2
2018-Jun-18 00:00N 33°45' W 118°16'1 1.7
2018-Jun-17 23:30N 33°44' W 118°17'1 1.4
2018-Jun-17 23:00N 33°44' W 118°16'2 3.9
2018-Jun-17 22:30N 33°43' W 118°13'2 3.7
2018-Jun-17 22:00N 33°44' W 118°12'0 0.8
2018-Jun-17 21:30N 33°44' W 118°11'1 1.5
2018-Jun-17 21:00N 33°44' W 118°11'1 2.0
2018-Jun-17 20:30N 33°44' W 118°12'3 6.9
2018-Jun-17 20:00N 33°44' W 118°16'0 0.0
2018-Jun-17 19:30N 33°44' W 118°16'0 0.0
2018-Jun-17 19:00N 33°44' W 118°16'0 0.0
2018-Jun-17 18:30N 33°44' W 118°16'0 0.0
2018-Jun-17 18:00N 33°44' W 118°16'0 0.0
2018-Jun-17 17:30N 33°44' W 118°16'1 1.3
2018-Jun-17 17:00N 33°44' W 118°16'0 0.7
2018-Jun-17 16:30N 33°44' W 118°16'2 3.5
2018-Jun-17 16:00N 33°45' W 118°16'0 0.2
2018-Jun-17 15:30N 33°45' W 118°16'1 1.5
2018-Jun-17 15:00N 33°46' W 118°16'2 3.1
2018-Jun-17 14:30N 33°44' W 118°17'1 1.7
2018-Jun-17 14:00N 33°44' W 118°16'0 0.0
2018-Jun-17 13:30N 33°44' W 118°16'0 0.1
2018-Jun-17 13:00N 33°44' W 118°16'0 0.4
2018-Jun-17 12:30N 33°44' W 118°16'1 1.4
2018-Jun-17 12:01N 33°44' W 118°15'0 0.0
2018-Jun-17 11:30N 33°44' W 118°15'0 0.2
2018-Jun-17 11:00N 33°44' W 118°15'0 0.9
2018-Jun-17 10:30N 33°44' W 118°16'0 0.0
2018-Jun-17 10:00N 33°44' W 118°16'0 0.0
2018-Jun-17 09:30N 33°44' W 118°16'0 0.0
2018-Jun-17 09:00N 33°44' W 118°16'0 0.0
2018-Jun-17 08:30N 33°44' W 118°16'0 0.0
2018-Jun-17 08:00N 33°44' W 118°16'0 0.0
2018-Jun-17 07:30N 33°44' W 118°16'0 0.0
2018-Jun-17 07:00N 33°44' W 118°16'0 0.0
2018-Jun-17 06:30N 33°44' W 118°16'0 0.0
2018-Jun-17 06:00N 33°44' W 118°16'0 0.0
2018-Jun-17 05:30N 33°44' W 118°16'0 0.0
2018-Jun-17 04:59N 33°44' W 118°16'0 0.0
2018-Jun-17 04:29N 33°44' W 118°16'2 3.5
2018-Jun-17 04:00N 33°43' W 118°14'2 4.2
2018-Jun-17 03:30N 33°45' W 118°13'0 0.1
2018-Jun-17 03:00N 33°45' W 118°13'2 3.4
2018-Jun-17 02:30N 33°44' W 118°12'0 0.5
2018-Jun-17 02:00N 33°44' W 118°12'1 1.2
2018-Jun-17 01:30N 33°44' W 118°12'1 2.6
2018-Jun-17 01:00N 33°45' W 118°13'0 0.1
2018-Jun-17 00:30N 33°45' W 118°13'3 5.1
2018-Jun-17 00:00N 33°43' W 118°14'1 2.9
2018-Jun-16 23:30N 33°44' W 118°16'0 0.0
2018-Jun-16 23:00N 33°44' W 118°16'0 0.0
2018-Jun-16 22:30N 33°44' W 118°16'0 0.8
2018-Jun-16 22:00N 33°44' W 118°15'1 1.9
2018-Jun-16 21:30N 33°43' W 118°16'1 1.7
2018-Jun-16 21:00N 33°43' W 118°15'1 2.8
2018-Jun-16 20:30N 33°44' W 118°16'3 5.3
2018-Jun-16 19:58N 33°44' W 118°12'2 3.8
2018-Jun-16 19:30N 33°45' W 118°11'0 0.0
2018-Jun-16 19:00N 33°45' W 118°11'3 6.4
2018-Jun-16 18:29N 33°43' W 118°14'1 3.0
2018-Jun-16 18:00N 33°44' W 118°16'0 0.0
2018-Jun-16 17:30N 33°44' W 118°16'0 0.0
2018-Jun-16 17:00N 33°44' W 118°16'0 0.0
2018-Jun-16 16:30N 33°44' W 118°16'0 0.0
2018-Jun-16 16:00N 33°44' W 118°16'0 0.0
2018-Jun-16 15:30N 33°44' W 118°16'0 0.0
2018-Jun-16 15:00N 33°44' W 118°16'0 0.0
2018-Jun-16 14:29N 33°44' W 118°16'0 0.0
2018-Jun-16 14:00N 33°44' W 118°16'0 0.0
2018-Jun-16 13:30N 33°44' W 118°16'1 1.8
2018-Jun-16 13:00N 33°44' W 118°17'1 3.0
2018-Jun-16 12:30N 33°46' W 118°16'0 0.1
2018-Jun-16 12:00N 33°46' W 118°16'0 0.1
2018-Jun-16 11:30N 33°46' W 118°16'0 0.1
2018-Jun-16 11:00N 33°46' W 118°16'0 0.0
2018-Jun-16 10:30N 33°46' W 118°16'0 0.3
2018-Jun-16 10:00N 33°46' W 118°17'1 1.5
2018-Jun-16 09:30N 33°45' W 118°16'2 4.6
2018-Jun-16 09:00N 33°43' W 118°15'1 2.0
2018-Jun-16 08:30N 33°44' W 118°16'0 0.0
2018-Jun-16 08:00N 33°44' W 118°16'1 1.6
2018-Jun-16 07:30N 33°44' W 118°17'2 3.9
2018-Jun-16 07:00N 33°46' W 118°15'0 0.6
2018-Jun-16 06:30N 33°46' W 118°15'3 5.2
2018-Jun-16 05:59N 33°43' W 118°16'1 1.4
2018-Jun-16 05:30N 33°44' W 118°16'0 0.0
2018-Jun-16 05:00N 33°44' W 118°16'0 0.0
2018-Jun-16 04:30N 33°44' W 118°16'0 0.0
2018-Jun-16 04:00N 33°44' W 118°16'1 4.1
2018-Jun-16 03:41N 33°45' W 118°16'0 1.9
2018-Jun-16 03:30N 33°45' W 118°16'11217.4
2018-Jun-16 03:30N 33°44' W 118°16'0 0.0
2018-Jun-16 03:00N 33°44' W 118°16'1459.5
2018-Jun-16 03:00N 33°43' W 118°16'1 2.1
2018-Jun-16 02:30N 33°44' W 118°16'4841.0
2018-Jun-16 02:30N 33°39' W 118°15'4 9.0
2018-Jun-16 02:00N 33°44' W 118°16'8528.5
2018-Jun-16 01:59N 33°36' W 118°16'4 8.2
2018-Jun-16 01:30N 33°32' W 118°18'1244250.9
2018-Jun-16 01:30N 33°44' W 118°16'0 0.1
2018-Jun-16 01:00N 33°44' W 118°16'163283.8
2018-Jun-16 01:00N 33°28' W 118°19'1735.0
2018-Jun-16 00:30N 33°45' W 118°16'22262.2
2018-Jun-16 00:25N 33°23' W 118°21'2252.6
2018-Jun-16 00:00N 33°45' W 118°17'23397.1
2018-Jun-15 23:57N 33°22' W 118°21'2351.9
2018-Jun-15 23:30N 33°45' W 118°17'232848.3
2018-Jun-15 23:30N 33°22' W 118°21'2347.5
2018-Jun-15 23:00N 33°45' W 118°16'23122.5
2018-Jun-15 22:49N 33°22' W 118°21'2272.1
2018-Jun-15 22:30N 33°44' W 118°17'22577.3
2018-Jun-15 22:28N 33°22' W 118°21'2145.3
2018-Jun-15 22:00N 33°42' W 118°15'211558.7
2018-Jun-15 22:00N 33°22' W 118°21'2245.2
2018-Jun-15 21:30N 33°44' W 118°16'222825.4
2018-Jun-15 21:30N 33°22' W 118°21'2244.7
2018-Jun-15 21:00N 33°44' W 118°16'22376.7
2018-Jun-15 20:57N 33°22' W 118°21'2249.4
2018-Jun-15 20:30N 33°44' W 118°16'224944.4
2018-Jun-15 20:30N 33°22' W 118°21'2244.6
2018-Jun-15 20:00N 33°44' W 118°16'2283.3
2018-Jun-15 19:45N 33°22' W 118°21'2397.8
2018-Jun-15 19:30N 33°45' W 118°16'23144.2
2018-Jun-15 19:21N 33°22' W 118°21'2368.6
2018-Jun-15 19:00N 33°45' W 118°16'1 2.6
2018-Jun-15 18:30N 33°44' W 118°16'22180.4
2018-Jun-15 18:23N 33°22' W 118°21'2257.1
2018-Jun-15 18:00N 33°44' W 118°16'22342.5
2018-Jun-15 17:56N 33°22' W 118°21'2251.5
2018-Jun-15 17:30N 33°44' W 118°16'19137.3
2018-Jun-15 17:22N 33°25' W 118°20'1952.4
2018-Jun-15 17:00N 33°44' W 118°16'16666.7
2018-Jun-15 16:59N 33°28' W 118°19'1633.5
2018-Jun-15 16:30N 33°44' W 118°16'12926.4
2018-Jun-15 16:29N 33°32' W 118°18'4 7.8
2018-Jun-15 16:00N 33°35' W 118°17'92821.1
2018-Jun-15 16:00N 33°44' W 118°16'  

Dump ship's entire track history